createdAt,value
2022-12-09T00:01:17.365Z,-0.40
2022-12-09T00:03:44.993Z,-0.30
2022-12-09T00:06:16.801Z,-0.40
2022-12-09T00:08:44.268Z,-0.40
2022-12-09T00:11:16.633Z,-0.60
2022-12-09T00:13:43.927Z,-0.70
2022-12-09T00:16:19.097Z,-0.70
2022-12-09T00:18:49.461Z,-0.80
2022-12-09T00:21:25.787Z,-0.80
2022-12-09T00:23:54.850Z,-0.80
2022-12-09T00:26:23.451Z,-0.90
2022-12-09T00:28:53.276Z,-0.80
2022-12-09T00:31:24.764Z,-0.80
2022-12-09T00:33:54.513Z,-0.60
2022-12-09T00:36:23.665Z,-0.60
2022-12-09T00:38:52.034Z,-0.60
2022-12-09T00:41:19.760Z,-0.60
2022-12-09T00:43:47.697Z,-0.60
2022-12-09T00:46:18.413Z,-0.60
2022-12-09T00:48:46.374Z,-0.60
2022-12-09T00:51:16.354Z,-0.70
2022-12-09T00:53:44.010Z,-0.70
2022-12-09T00:56:12.654Z,-0.60
2022-12-09T00:58:39.862Z,-0.60
2022-12-09T01:01:07.265Z,-0.60
2022-12-09T01:03:34.712Z,-0.60
2022-12-09T01:06:07.284Z,-0.60
2022-12-09T01:08:38.338Z,-0.70
2022-12-09T01:11:11.260Z,-0.70
2022-12-09T01:13:38.835Z,-0.50
2022-12-09T01:16:14.636Z,-0.60
2022-12-09T01:18:41.850Z,-0.50
2022-12-09T01:21:09.195Z,-0.30
2022-12-09T01:23:36.222Z,-0.30
2022-12-09T01:26:05.557Z,-0.30
2022-12-09T01:28:35.282Z,-0.30
2022-12-09T01:31:17.927Z,-0.40
2022-12-09T01:33:46.377Z,-0.50
2022-12-09T01:36:23.356Z,-0.40
2022-12-09T01:38:50.584Z,-0.50
2022-12-09T01:41:19.925Z,-0.50
2022-12-09T01:44:06.997Z,-0.50
2022-12-09T01:46:34.071Z,-0.60
2022-12-09T01:49:01.319Z,-0.70
2022-12-09T01:51:30.439Z,-0.60
2022-12-09T01:53:58.200Z,-0.60
2022-12-09T01:56:32.928Z,-0.80
2022-12-09T01:59:07.630Z,-0.80
2022-12-09T02:01:35.810Z,-0.80
2022-12-09T02:04:03.230Z,-0.90
2022-12-09T02:06:31.002Z,-0.90
2022-12-09T02:08:59.549Z,-0.80
2022-12-09T02:11:42.495Z,-0.70
2022-12-09T02:14:44.872Z,-0.50
2022-12-09T02:17:17.928Z,-0.60
2022-12-09T02:20:02.969Z,-0.60
2022-12-09T02:22:34.852Z,-0.60
2022-12-09T02:25:22.744Z,-0.70
2022-12-09T02:27:54.111Z,-0.80
2022-12-09T02:30:25.185Z,-0.70
2022-12-09T02:33:09.090Z,-0.60
2022-12-09T02:35:39.635Z,-0.60
2022-12-09T02:38:23.387Z,-0.70
2022-12-09T02:40:55.796Z,-0.80
2022-12-09T02:43:27.439Z,-0.60
2022-12-09T02:45:56.100Z,-0.60
2022-12-09T02:48:28.576Z,-0.70
2022-12-09T02:50:58.300Z,-0.60
2022-12-09T02:53:27.175Z,-0.60
2022-12-09T02:55:56.326Z,-0.50
2022-12-09T02:58:23.626Z,-0.50
2022-12-09T03:00:52.328Z,-0.60
2022-12-09T03:03:19.566Z,-0.70
2022-12-09T03:06:07.745Z,-0.60
2022-12-09T03:08:47.644Z,-0.50
2022-12-09T03:11:17.553Z,-0.60
2022-12-09T03:13:57.180Z,-0.60
2022-12-09T03:16:33.415Z,-0.70
2022-12-09T03:19:27.257Z,-0.60
2022-12-09T03:21:58.564Z,-0.60
2022-12-09T03:24:31.333Z,-0.60
2022-12-09T03:26:59.395Z,-0.60
2022-12-09T03:29:29.273Z,-0.40
2022-12-09T03:31:58.583Z,-0.40
2022-12-09T03:34:34.925Z,-0.40
2022-12-09T03:37:04.643Z,-0.50
2022-12-09T03:39:36.993Z,-0.50
2022-12-09T03:42:19.076Z,-0.60
2022-12-09T03:44:53.096Z,-0.50
2022-12-09T03:47:21.158Z,-0.50
2022-12-09T03:49:51.310Z,-0.60
2022-12-09T03:52:27.176Z,-0.60
2022-12-09T03:55:03.305Z,-0.50
2022-12-09T03:57:30.854Z,-0.60
2022-12-09T04:00:02.972Z,-0.40
2022-12-09T04:02:30.348Z,-0.40
2022-12-09T04:04:58.149Z,-0.40
2022-12-09T04:07:25.900Z,-0.50
2022-12-09T04:09:53.465Z,-0.40
2022-12-09T04:13:32.832Z,-0.30
2022-12-09T04:15:58.646Z,-0.20
2022-12-09T04:18:26.326Z,-0.20
2022-12-09T04:20:56.968Z,-0.40
2022-12-09T04:23:24.480Z,-0.30
2022-12-09T04:25:51.843Z,-0.30
2022-12-09T04:28:19.475Z,-0.30
2022-12-09T04:30:47.753Z,-0.40
2022-12-09T04:33:15.158Z,-0.40
2022-12-09T04:35:42.410Z,-0.40
2022-12-09T04:38:09.638Z,-0.40
2022-12-09T04:40:36.863Z,-0.40
2022-12-09T04:43:03.984Z,-0.50
2022-12-09T04:45:31.878Z,-0.60
2022-12-09T04:48:00.275Z,-0.70
2022-12-09T04:50:27.979Z,-0.70
2022-12-09T04:52:55.297Z,-0.60
2022-12-09T04:55:22.486Z,-0.70
2022-12-09T04:57:49.990Z,-0.60
2022-12-09T05:00:18.113Z,-0.50
2022-12-09T05:02:47.769Z,-0.40
2022-12-09T05:05:15.733Z,-0.50
2022-12-09T05:07:43.615Z,-0.70
2022-12-09T05:10:11.744Z,-0.60
2022-12-09T05:12:39.334Z,-0.50
2022-12-09T05:15:07.155Z,-0.40
2022-12-09T05:17:35.223Z,-0.30
2022-12-09T05:20:02.836Z,-0.40
2022-12-09T05:22:29.948Z,-0.50
2022-12-09T05:24:57.656Z,-0.50
2022-12-09T05:27:27.142Z,-0.60
2022-12-09T05:29:54.863Z,-0.40
2022-12-09T05:32:22.478Z,-0.30
2022-12-09T05:34:51.192Z,-0.20
2022-12-09T05:37:18.812Z,-0.40
2022-12-09T05:39:45.925Z,-0.40
2022-12-09T05:42:12.850Z,-0.50
2022-12-09T05:44:40.087Z,-0.40
2022-12-09T05:47:07.377Z,-0.50
2022-12-09T05:49:34.955Z,-0.60
2022-12-09T05:52:02.764Z,-0.50
2022-12-09T05:54:30.315Z,-0.50
2022-12-09T05:56:58.239Z,-0.60
2022-12-09T05:59:29.016Z,-0.70
2022-12-09T06:01:57.410Z,-0.50
2022-12-09T06:04:24.736Z,-0.40
2022-12-09T06:06:52.865Z,-0.30
2022-12-09T06:09:20.998Z,-0.30
2022-12-09T06:11:48.482Z,-0.40
2022-12-09T06:14:15.709Z,-0.30
2022-12-09T06:16:43.303Z,-0.20
2022-12-09T06:19:12.992Z,-0.10
2022-12-09T06:21:41.568Z,-0.20
2022-12-09T06:24:09.386Z,-0.10
2022-12-09T06:26:36.866Z,-0.20
2022-12-09T06:29:04.301Z,-0.20
2022-12-09T06:31:32.511Z,-0.40
2022-12-09T06:34:01.171Z,-0.40
2022-12-09T06:36:31.242Z,-0.40
2022-12-09T06:39:07.664Z,-0.30
2022-12-09T06:41:37.233Z,-0.30
2022-12-09T06:44:04.868Z,-0.40
2022-12-09T06:46:32.073Z,-0.30
2022-12-09T06:48:59.464Z,-0.30
2022-12-09T06:51:26.788Z,-0.30
2022-12-09T06:53:56.659Z,-0.20
2022-12-09T06:56:24.608Z,-0.20
2022-12-09T06:58:52.869Z,0.00
2022-12-09T07:01:23.799Z,0.00
2022-12-09T07:03:59.574Z,0.00
2022-12-09T07:06:38.351Z,0.00
2022-12-09T07:09:14.781Z,0.10
2022-12-09T07:11:43.275Z,-0.10
2022-12-09T07:14:13.513Z,-0.30
2022-12-09T07:16:41.465Z,-0.20
2022-12-09T07:19:14.866Z,-0.20
2022-12-09T07:21:42.431Z,-0.20
2022-12-09T07:24:10.837Z,-0.10
2022-12-09T07:26:38.303Z,0.00
2022-12-09T07:29:06.853Z,0.00
2022-12-09T07:31:35.514Z,0.00
2022-12-09T07:34:04.009Z,-0.10
2022-12-09T07:36:33.150Z,-0.10
2022-12-09T07:39:08.431Z,0.00
2022-12-09T07:41:36.060Z,0.10
2022-12-09T07:44:03.630Z,0.20
2022-12-09T07:46:31.461Z,0.30
2022-12-09T07:48:59.466Z,0.30
2022-12-09T07:51:27.535Z,0.40
2022-12-09T07:53:54.965Z,0.50
2022-12-09T07:56:24.016Z,0.60
2022-12-09T07:58:55.313Z,0.80
2022-12-09T08:01:26.046Z,0.80
2022-12-09T08:03:54.638Z,0.80
2022-12-09T08:06:25.123Z,0.70
2022-12-09T08:08:56.858Z,0.60
2022-12-09T08:11:27.530Z,0.50
2022-12-09T08:13:58.468Z,0.50
2022-12-09T08:16:26.651Z,0.40
2022-12-09T08:18:55.515Z,0.50
2022-12-09T08:21:29.274Z,0.50
2022-12-09T08:23:59.391Z,0.60
2022-12-09T08:26:30.624Z,0.60
2022-12-09T08:28:58.266Z,0.70
2022-12-09T08:31:27.302Z,0.70
2022-12-09T08:33:54.996Z,0.90
2022-12-09T08:36:25.584Z,1.00
2022-12-09T08:38:53.846Z,1.10
2022-12-09T08:41:39.105Z,1.10
2022-12-09T08:44:08.897Z,1.00
2022-12-09T08:46:38.086Z,1.10
2022-12-09T08:49:06.422Z,1.20
2022-12-09T08:51:34.863Z,1.10
2022-12-09T08:54:03.407Z,1.40
2022-12-09T08:56:31.414Z,1.40
2022-12-09T08:59:02.104Z,1.20
2022-12-09T09:01:36.132Z,1.40
2022-12-09T09:04:08.724Z,1.50
2022-12-09T09:06:38.699Z,1.40
2022-12-09T09:09:09.067Z,1.10
2022-12-09T09:11:37.383Z,1.00
2022-12-09T09:14:07.752Z,1.30
2022-12-09T09:16:35.595Z,1.50
2022-12-09T09:19:06.159Z,1.60
2022-12-09T09:21:34.666Z,1.60
2022-12-09T09:24:02.525Z,1.70
2022-12-09T09:26:30.257Z,1.80
2022-12-09T09:28:57.982Z,1.90
2022-12-09T09:31:26.032Z,1.80
2022-12-09T09:33:54.140Z,1.70
2022-12-09T09:36:24.825Z,2.00
2022-12-09T09:38:55.048Z,2.20
2022-12-09T09:41:50.960Z,2.30
2022-12-09T09:44:41.291Z,2.30
2022-12-09T09:47:38.247Z,2.30
2022-12-09T09:50:34.521Z,2.30
2022-12-09T09:53:17.481Z,2.30
2022-12-09T09:56:00.134Z,2.30
2022-12-09T09:58:53.423Z,2.10
2022-12-09T10:01:25.676Z,2.20
2022-12-09T10:04:28.946Z,2.50
2022-12-09T10:07:16.087Z,2.40
2022-12-09T10:09:52.786Z,2.40
2022-12-09T10:12:26.285Z,2.40
2022-12-09T10:15:13.517Z,2.40
2022-12-09T10:17:53.344Z,2.40
2022-12-09T10:20:26.849Z,2.50
2022-12-09T10:23:12.926Z,2.60
2022-12-09T10:26:00.332Z,2.60
2022-12-09T10:28:37.241Z,2.60
2022-12-09T10:31:04.623Z,2.50
2022-12-09T10:33:39.990Z,2.30
2022-12-09T10:36:20.141Z,2.00
2022-12-09T10:38:48.085Z,1.90
2022-12-09T10:42:07.731Z,2.00
2022-12-09T10:44:48.353Z,1.90
2022-12-09T10:47:28.999Z,2.20
2022-12-09T10:49:58.458Z,2.30
2022-12-09T10:52:37.048Z,2.20
2022-12-09T10:55:05.364Z,1.90
2022-12-09T10:57:32.729Z,1.70
2022-12-09T11:00:20.746Z,1.60
2022-12-09T11:02:53.991Z,1.60
2022-12-09T11:05:35.709Z,1.70
2022-12-09T11:08:05.030Z,1.70
2022-12-09T11:10:33.394Z,1.80
2022-12-09T11:13:07.441Z,1.90
2022-12-09T11:15:50.438Z,1.80
2022-12-09T11:18:29.188Z,1.40
2022-12-09T11:21:06.162Z,1.40
2022-12-09T11:23:57.230Z,1.60
2022-12-09T11:26:36.641Z,1.70
2022-12-09T11:29:22.298Z,1.60
2022-12-09T11:31:49.973Z,1.60
2022-12-09T11:34:26.274Z,1.60
2022-12-09T11:36:56.786Z,1.40
2022-12-09T11:39:30.434Z,1.40
2022-12-09T11:42:18.844Z,1.40
2022-12-09T11:45:05.628Z,1.40
2022-12-09T11:50:33.175Z,1.50
2022-12-09T11:53:17.925Z,1.60
2022-12-09T11:55:53.492Z,1.50
2022-12-09T11:58:39.309Z,1.40
2022-12-09T12:01:22.080Z,1.40
2022-12-09T12:04:10.429Z,1.20
2022-12-09T12:07:26.840Z,1.20
2022-12-09T12:09:59.122Z,1.20
2022-12-09T12:12:54.125Z,1.10
2022-12-09T12:15:35.055Z,1.20
2022-12-09T12:18:06.050Z,1.10
2022-12-09T12:21:00.633Z,1.10
2022-12-09T12:23:44.879Z,1.20
2022-12-09T12:26:25.746Z,1.20
2022-12-09T12:29:12.639Z,1.20
2022-12-09T12:32:29.740Z,1.30
2022-12-09T12:35:32.005Z,1.40
2022-12-09T12:38:05.842Z,1.50
2022-12-09T12:40:59.995Z,1.60
2022-12-09T12:44:16.450Z,1.70
2022-12-09T12:47:02.734Z,1.70
2022-12-09T12:49:56.286Z,1.90
2022-12-09T12:52:56.032Z,1.80
2022-12-09T12:55:56.748Z,1.70
2022-12-09T12:58:36.589Z,1.70
2022-12-09T13:01:33.288Z,1.80
2022-12-09T13:04:27.639Z,1.80
2022-12-09T13:07:07.249Z,1.80
2022-12-09T13:10:04.520Z,1.90
2022-12-09T13:12:57.386Z,2.00
2022-12-09T13:15:32.940Z,1.90
2022-12-09T13:18:09.782Z,1.80
2022-12-09T13:20:54.887Z,1.70
2022-12-09T13:23:46.372Z,1.70
2022-12-09T13:26:51.923Z,1.80
2022-12-09T13:29:57.833Z,1.90
2022-12-09T13:33:01.503Z,1.70
2022-12-09T13:35:52.428Z,1.60
2022-12-09T13:38:34.379Z,1.50
2022-12-09T13:41:21.590Z,1.40
2022-12-09T13:43:49.147Z,1.30
2022-12-09T13:46:23.000Z,1.20
2022-12-09T13:48:51.752Z,1.20
2022-12-09T13:51:20.328Z,1.10
2022-12-09T13:54:07.341Z,1.10
2022-12-09T13:56:38.410Z,1.00
2022-12-09T13:59:53.172Z,1.00
2022-12-09T14:02:38.678Z,1.00
2022-12-09T14:05:34.840Z,1.10
2022-12-09T14:08:17.114Z,1.10
2022-12-09T14:10:51.127Z,1.20
2022-12-09T14:13:26.436Z,1.20
2022-12-09T14:16:29.242Z,1.20
2022-12-09T14:18:57.970Z,1.20
2022-12-09T14:21:28.116Z,1.20
2022-12-09T14:24:23.759Z,1.20
2022-12-09T14:26:53.827Z,1.10
2022-12-09T14:29:42.843Z,1.20
2022-12-09T14:32:31.808Z,1.30
2022-12-09T14:35:11.552Z,1.20
2022-12-09T14:37:57.927Z,1.20
2022-12-09T14:40:43.353Z,1.20
2022-12-09T14:43:49.765Z,1.30
2022-12-09T14:46:26.982Z,1.30
2022-12-09T14:49:01.945Z,1.30
2022-12-09T14:51:45.974Z,1.30
2022-12-09T14:54:19.151Z,1.20
2022-12-09T14:56:52.185Z,1.30
2022-12-09T14:59:24.961Z,1.30
2022-12-09T15:02:00.528Z,1.30
2022-12-09T15:04:37.108Z,1.30
2022-12-09T15:07:25.359Z,1.40
2022-12-09T15:10:03.190Z,1.40
2022-12-09T15:12:36.024Z,1.50
2022-12-09T15:15:20.290Z,1.50
2022-12-09T15:18:02.237Z,1.50
2022-12-09T15:20:33.827Z,1.60
2022-12-09T15:23:05.141Z,1.60
2022-12-09T15:25:34.246Z,1.50
2022-12-09T15:28:13.113Z,1.50
2022-12-09T15:30:40.356Z,1.50
2022-12-09T15:33:27.440Z,1.40
2022-12-09T15:36:01.408Z,1.50
2022-12-09T15:38:37.343Z,1.50
2022-12-09T15:41:28.168Z,1.50
2022-12-09T15:44:02.228Z,1.50
2022-12-09T15:46:32.957Z,1.50
2022-12-09T15:49:02.501Z,1.60
2022-12-09T15:51:30.980Z,1.60
2022-12-09T15:53:57.799Z,1.60
2022-12-09T15:56:32.763Z,1.50
2022-12-09T15:59:07.367Z,1.60
2022-12-09T16:01:35.764Z,1.50
2022-12-09T16:04:05.698Z,1.60
2022-12-09T16:06:36.131Z,1.50
2022-12-09T16:09:11.676Z,1.60
2022-12-09T16:11:48.702Z,1.50
2022-12-09T16:14:20.830Z,1.60
2022-12-09T16:16:55.495Z,1.40
2022-12-09T16:19:31.506Z,1.40
2022-12-09T16:22:05.260Z,1.50
2022-12-09T16:24:57.827Z,1.40
2022-12-09T16:27:25.644Z,1.40
2022-12-09T16:29:55.424Z,1.40
2022-12-09T16:32:44.710Z,1.40
2022-12-09T16:35:11.672Z,1.40
2022-12-09T16:37:41.986Z,1.30
2022-12-09T16:40:26.497Z,1.40
2022-12-09T16:43:16.074Z,1.40
2022-12-09T16:45:44.672Z,1.40
2022-12-09T16:48:13.373Z,1.40
2022-12-09T16:50:47.675Z,1.40
2022-12-09T16:53:20.431Z,1.50
2022-12-09T16:55:56.476Z,1.50
2022-12-09T16:58:23.563Z,1.50
2022-12-09T17:00:51.335Z,1.50
2022-12-09T17:03:42.326Z,1.50
2022-12-09T17:06:14.600Z,1.60
2022-12-09T17:08:41.815Z,1.70
2022-12-09T17:11:09.139Z,1.70
2022-12-09T17:13:36.765Z,1.70
2022-12-09T17:16:05.677Z,1.80
2022-12-09T17:18:38.199Z,1.80
2022-12-09T17:21:07.427Z,1.80
2022-12-09T17:23:39.577Z,1.70
2022-12-09T17:26:09.868Z,1.80
2022-12-09T17:28:37.697Z,1.70
2022-12-09T17:31:16.772Z,1.60
2022-12-09T17:33:43.991Z,1.70
2022-12-09T17:36:12.929Z,1.70
2022-12-09T17:38:40.934Z,1.70
2022-12-09T17:41:11.638Z,1.60
2022-12-09T17:43:38.582Z,1.70
2022-12-09T17:46:06.685Z,1.70
2022-12-09T17:48:34.845Z,1.80
2022-12-09T17:51:11.202Z,1.90
2022-12-09T17:53:40.935Z,1.80
2022-12-09T17:56:14.526Z,1.70
2022-12-09T17:58:42.783Z,1.60
2022-12-09T18:01:19.411Z,1.50
2022-12-09T18:03:56.095Z,1.50
2022-12-09T18:06:28.025Z,1.60
2022-12-09T18:08:55.787Z,1.60
2022-12-09T18:11:26.343Z,1.60
2022-12-09T18:13:54.670Z,1.60
2022-12-09T18:16:22.659Z,1.60
2022-12-09T18:18:50.586Z,1.60
2022-12-09T18:21:20.213Z,1.50
2022-12-09T18:23:51.182Z,1.50
2022-12-09T18:26:28.570Z,1.50
2022-12-09T18:29:01.493Z,1.50
2022-12-09T18:31:32.448Z,1.50
2022-12-09T18:34:02.233Z,1.50
2022-12-09T18:36:32.896Z,1.40
2022-12-09T18:39:02.259Z,1.40
2022-12-09T18:41:31.507Z,1.40
2022-12-09T18:44:01.572Z,1.40
2022-12-09T18:46:40.210Z,1.40
2022-12-09T18:49:22.201Z,1.40
2022-12-09T18:51:51.093Z,1.50
2022-12-09T18:54:24.998Z,1.40
2022-12-09T18:56:57.282Z,1.50
2022-12-09T18:59:27.134Z,1.50
2022-12-09T19:01:55.157Z,1.50
2022-12-09T19:04:27.190Z,1.50
2022-12-09T19:06:57.271Z,1.60
2022-12-09T19:09:29.080Z,1.70
2022-12-09T19:12:16.587Z,1.70
2022-12-09T19:14:49.566Z,1.60
2022-12-09T19:17:24.756Z,1.60
2022-12-09T19:19:52.135Z,1.70
2022-12-09T19:22:19.260Z,1.70
2022-12-09T19:24:52.348Z,1.70
2022-12-09T19:27:19.329Z,1.70
2022-12-09T19:29:46.646Z,1.90
2022-12-09T19:32:44.090Z,1.90
2022-12-09T19:35:03.741Z,1.90
2022-12-09T19:37:31.125Z,1.90
2022-12-09T19:39:59.599Z,1.90
2022-12-09T19:42:29.230Z,2.00
2022-12-09T19:45:01.939Z,2.10
2022-12-09T19:47:32.336Z,2.10
2022-12-09T19:50:08.469Z,2.00
2022-12-09T19:52:36.344Z,2.00
2022-12-09T19:55:06.601Z,1.90
2022-12-09T19:57:36.844Z,1.90
2022-12-09T20:00:07.682Z,1.90
2022-12-09T20:02:36.546Z,1.80
2022-12-09T20:05:06.511Z,1.70
2022-12-09T20:07:35.790Z,1.70
2022-12-09T20:10:09.988Z,1.70
2022-12-09T20:12:44.296Z,1.80
2022-12-09T20:15:11.857Z,1.90
2022-12-09T20:17:47.617Z,1.90
2022-12-09T20:20:15.276Z,1.90
2022-12-09T20:22:52.046Z,1.80
2022-12-09T20:25:19.203Z,2.00
2022-12-09T20:27:49.671Z,1.80
2022-12-09T20:30:22.609Z,1.80
2022-12-09T20:32:52.458Z,1.80
2022-12-09T20:35:19.659Z,1.70
2022-12-09T20:37:58.433Z,1.70
2022-12-09T20:40:25.583Z,1.70
2022-12-09T20:42:59.498Z,1.70
2022-12-09T20:45:29.772Z,1.80
2022-12-09T20:48:04.920Z,1.70
2022-12-09T20:50:38.774Z,1.80
2022-12-09T20:53:12.886Z,1.80
2022-12-09T20:56:05.360Z,1.90
2022-12-09T20:58:39.269Z,1.90
2022-12-09T21:01:23.448Z,2.00
2022-12-09T21:03:57.401Z,2.00
2022-12-09T21:06:42.753Z,1.90
2022-12-09T21:09:22.761Z,1.90
2022-12-09T21:12:04.810Z,1.90
2022-12-09T21:15:05.521Z,1.80
2022-12-09T21:17:45.544Z,1.90
2022-12-09T21:20:17.234Z,1.90
2022-12-09T21:23:04.384Z,1.70
2022-12-09T21:25:35.316Z,1.80
2022-12-09T21:28:05.486Z,2.00
2022-12-09T21:30:32.859Z,2.00
2022-12-09T21:33:00.633Z,2.00
2022-12-09T21:35:30.929Z,2.00
2022-12-09T21:38:00.814Z,2.10
2022-12-09T21:40:34.426Z,1.90
2022-12-09T21:43:03.208Z,2.00
2022-12-09T21:45:32.325Z,1.90
2022-12-09T21:47:59.924Z,1.90
2022-12-09T21:50:28.754Z,2.00
2022-12-09T21:52:55.889Z,2.10
2022-12-09T21:55:25.571Z,2.00
2022-12-09T21:57:53.161Z,1.90
2022-12-09T22:00:20.487Z,2.00
2022-12-09T22:02:51.871Z,2.00
2022-12-09T22:05:19.351Z,1.90
2022-12-09T22:07:50.368Z,1.70
2022-12-09T22:10:18.022Z,1.80
2022-12-09T22:13:05.449Z,1.90
2022-12-09T22:15:33.162Z,2.00
2022-12-09T22:18:21.381Z,2.10
2022-12-09T22:23:39.522Z,2.00
2022-12-09T22:26:09.365Z,2.00
2022-12-09T22:28:37.536Z,1.80
2022-12-09T22:31:15.663Z,1.80
2022-12-09T22:33:45.723Z,1.70
2022-12-09T22:36:15.021Z,1.70
2022-12-09T22:38:45.456Z,1.80
2022-12-09T22:41:19.291Z,1.90
2022-12-09T22:43:47.674Z,1.80
2022-12-09T22:46:24.158Z,1.80
2022-12-09T22:48:52.214Z,1.70
2022-12-09T22:51:22.271Z,1.60
2022-12-09T22:53:51.744Z,1.60
2022-12-09T22:56:23.681Z,1.50
2022-12-09T22:58:59.119Z,1.60
2022-12-09T23:01:28.939Z,1.70
2022-12-09T23:03:57.940Z,1.60
2022-12-09T23:06:26.931Z,1.70
2022-12-09T23:08:54.694Z,1.80
2022-12-09T23:11:24.994Z,1.80
2022-12-09T23:13:52.736Z,1.80
2022-12-09T23:16:24.884Z,1.80
2022-12-09T23:18:56.470Z,1.70
2022-12-09T23:21:26.920Z,1.70
2022-12-09T23:23:56.526Z,1.80
2022-12-09T23:26:28.409Z,1.80
2022-12-09T23:28:58.536Z,1.80
2022-12-09T23:31:32.911Z,1.90
2022-12-09T23:34:01.855Z,1.80
2022-12-09T23:36:31.579Z,1.90
2022-12-09T23:39:00.084Z,1.90
2022-12-09T23:41:28.727Z,1.90
2022-12-09T23:43:59.802Z,1.70
2022-12-09T23:46:28.328Z,1.70
2022-12-09T23:48:56.626Z,1.80
2022-12-09T23:51:36.346Z,1.70
2022-12-09T23:54:11.753Z,1.80
2022-12-09T23:56:44.199Z,1.90
2022-12-09T23:59:13.870Z,2.00
